Time;durP1;ratioP1;P1;durP2;ratioP2;P2;SDS_P1;SDS_P2;PMS_P1;PMS_P2;Temp;Humidity;BMP_temperature;BMP_pressure;BME280_temperature;BME280_humidity;BME280_pressure;Samples;Min_cycle;Max_cycle;Signal;HPM_P1;HPM_P2
2023/12/28 00:01:29;;;;;;;9.38;5.22;;;8.80;99.90;;;;;;5029746;28;20024;-84
2023/12/28 00:03:54;;;;;;;8.90;4.85;;;8.80;99.90;;;;;;5014890;28;20029;-84
2023/12/28 00:06:20;;;;;;;8.93;4.63;;;8.90;99.90;;;;;;5012473;28;20064;-85
2023/12/28 00:08:46;;;;;;;7.60;4.22;;;8.70;99.90;;;;;;5010803;28;20040;-83
2023/12/28 00:11:11;;;;;;;7.82;4.18;;;9.00;99.90;;;;;;5020128;28;20042;-85
2023/12/28 00:13:37;;;;;;;7.82;4.22;;;8.80;99.90;;;;;;5034900;28;20034;-82
2023/12/28 00:16:03;;;;;;;8.25;4.80;;;8.90;99.90;;;;;;5031125;28;20085;-86
2023/12/28 00:18:28;;;;;;;7.60;4.28;;;9.00;99.90;;;;;;5018417;28;20044;-88
2023/12/28 00:20:54;;;;;;;7.97;4.28;;;9.00;99.90;;;;;;5016976;28;20060;-83
2023/12/28 00:23:22;;;;;;;6.35;4.18;;;8.90;99.90;;;;;;5014584;28;20037;-82
2023/12/28 00:25:48;;;;;;;8.60;4.45;;;8.90;99.90;;;;;;5019470;28;20099;-84
2023/12/28 00:28:14;;;;;;;9.35;4.28;;;9.00;99.90;;;;;;5011715;28;20026;-85
2023/12/28 00:30:39;;;;;;;9.10;4.22;;;9.10;99.90;;;;;;5009836;28;20033;-83
2023/12/28 00:33:05;;;;;;;8.65;4.10;;;9.10;99.90;;;;;;5004468;28;20034;-84
2023/12/28 00:35:30;;;;;;;8.82;4.80;;;9.10;99.90;;;;;;5006257;28;20022;-87
2023/12/28 00:37:56;;;;;;;5.75;3.63;;;9.00;99.90;;;;;;5013397;28;20030;-84
2023/12/28 00:40:22;;;;;;;7.30;4.05;;;9.00;99.90;;;;;;5026276;28;20026;-82
2023/12/28 00:42:48;;;;;;;7.63;4.18;;;9.00;99.90;;;;;;5030999;28;20026;-85
2023/12/28 00:45:14;;;;;;;6.68;4.03;;;9.10;99.90;;;;;;5031207;28;20053;-86
2023/12/28 00:47:42;;;;;;;6.70;4.22;;;9.10;99.90;;;;;;5015284;28;20014;-82
2023/12/28 00:50:11;;;;;;;7.18;3.90;;;9.20;99.90;;;;;;5011515;28;20049;-84
2023/12/28 00:52:37;;;;;;;6.50;4.05;;;9.20;99.90;;;;;;5022431;28;20103;-86
2023/12/28 00:55:04;;;;;;;7.68;4.10;;;9.20;99.90;;;;;;5012162;28;20522;-85
2023/12/28 00:57:30;;;;;;;8.48;4.50;;;9.20;99.90;;;;;;5031088;28;20012;-83
2023/12/28 00:59:55;;;;;;;11.25;4.70;;;9.20;99.90;;;;;;5014640;28;20041;-83
2023/12/28 01:02:21;;;;;;;6.90;3.78;;;9.10;99.90;;;;;;5027959;28;20025;-86
2023/12/28 01:04:47;;;;;;;6.00;3.53;;;9.10;99.90;;;;;;5025559;28;20373;-85
2023/12/28 01:07:12;;;;;;;6.00;3.47;;;8.90;99.90;;;;;;5029629;28;20036;-83
2023/12/28 01:09:38;;;;;;;7.47;4.00;;;9.20;99.90;;;;;;5012450;28;20053;-86
2023/12/28 01:12:05;;;;;;;5.95;3.25;;;9.10;99.90;;;;;;5012992;28;20097;-88
2023/12/28 01:14:30;;;;;;;6.30;3.83;;;9.20;99.90;;;;;;5011282;28;20041;-88
2023/12/28 01:16:56;;;;;;;9.00;3.40;;;9.20;99.90;;;;;;5010685;28;20034;-82
2023/12/28 01:19:23;;;;;;;7.30;3.00;;;9.50;99.90;;;;;;5028928;28;20490;-86
2023/12/28 01:21:49;;;;;;;7.18;3.88;;;9.70;99.90;;;;;;5023477;28;20091;-85
2023/12/28 01:24:15;;;;;;;5.40;3.20;;;9.80;99.90;;;;;;5008026;28;20333;-85
2023/12/28 01:26:41;;;;;;;8.77;4.03;;;10.00;99.90;;;;;;5025530;28;20052;-86
2023/12/28 01:29:06;;;;;;;6.80;4.10;;;10.00;99.90;;;;;;5029910;28;20025;-85
2023/12/28 01:31:32;;;;;;;6.38;3.75;;;9.20;99.90;;;;;;5009113;28;20057;-84
2023/12/28 01:33:58;;;;;;;10.88;4.05;;;9.20;99.90;;;;;;5007370;28;20065;-84
2023/12/28 01:36:24;;;;;;;6.80;3.70;;;9.20;99.90;;;;;;5023298;28;20056;-86
2023/12/28 01:38:49;;;;;;;7.55;3.47;;;9.20;99.90;;;;;;5026621;28;20147;-88
2023/12/28 01:41:15;;;;;;;6.85;3.65;;;9.30;99.90;;;;;;5024405;28;20091;-86
2023/12/28 01:43:42;;;;;;;6.20;3.38;;;9.40;99.90;;;;;;5021334;28;20026;-83
2023/12/28 01:46:15;;;;;;;6.75;3.83;;;9.20;99.90;;;;;;5007915;28;20026;-86
2023/12/28 01:48:42;;;;;;;8.57;3.92;;;9.20;99.90;;;;;;5028333;28;20026;-85
2023/12/28 01:51:08;;;;;;;5.90;3.30;;;9.30;99.90;;;;;;5008535;28;20068;-86
2023/12/28 01:53:33;;;;;;;5.57;3.13;;;9.20;99.90;;;;;;5004111;28;20034;-87
2023/12/28 01:56:00;;;;;;;5.95;3.80;;;9.10;99.90;;;;;;5029646;28;20093;-87
2023/12/28 01:58:28;;;;;;;6.90;3.40;;;9.10;99.90;;;;;;5034633;28;20029;-85
2023/12/28 02:00:56;;;;;;;7.07;3.50;;;9.10;99.90;;;;;;5001760;28;20034;-85
2023/12/28 02:03:22;;;;;;;6.53;3.63;;;9.00;99.90;;;;;;5035030;28;20033;-87
2023/12/28 02:05:48;;;;;;;7.00;3.67;;;9.00;99.90;;;;;;5032991;28;20033;-85
2023/12/28 02:08:14;;;;;;;5.03;3.38;;;8.90;99.90;;;;;;5031680;28;20026;-84
2023/12/28 02:10:40;;;;;;;6.63;3.28;;;8.80;99.90;;;;;;5023307;28;20230;-85
2023/12/28 02:13:05;;;;;;;7.28;3.78;;;8.60;99.90;;;;;;5026719;28;20056;-86
2023/12/28 02:15:31;;;;;;;7.20;3.88;;;8.60;99.90;;;;;;5012608;28;20025;-84
2023/12/28 02:18:13;;;;;;;7.03;4.00;;;8.50;99.90;;;;;;5017425;28;20021;-85
2023/12/28 02:20:41;;;;;;;6.45;4.00;;;8.40;99.90;;;;;;5040415;28;20044;-85
2023/12/28 02:23:08;;;;;;;9.30;4.03;;;8.30;99.90;;;;;;5042707;28;20028;-86
2023/12/28 02:25:33;;;;;;;6.47;3.83;;;8.20;99.90;;;;;;5014236;28;20007;-86
2023/12/28 02:27:59;;;;;;;6.65;3.90;;;8.30;99.90;;;;;;5021157;28;20041;-84
2023/12/28 02:30:25;;;;;;;8.77;4.60;;;8.00;99.90;;;;;;5016876;28;20089;-85
2023/12/28 02:32:51;;;;;;;6.68;4.38;;;8.10;99.90;;;;;;5032994;28;20038;-86
2023/12/28 02:35:29;;;;;;;7.45;4.38;;;8.00;99.90;;;;;;5033021;28;20017;-85
2023/12/28 02:37:58;;;;;;;7.50;4.07;;;8.00;99.90;;;;;;5034455;28;20026;-84
2023/12/28 02:40:26;;;;;;;7.85;4.00;;;8.00;99.90;;;;;;5007877;28;20053;-87
2023/12/28 02:42:52;;;;;;;8.30;4.03;;;8.00;99.90;;;;;;5017167;28;20014;-83
2023/12/28 02:45:18;;;;;;;7.50;3.60;;;8.90;99.90;;;;;;5033854;28;20029;-85
2023/12/28 02:47:44;;;;;;;5.35;3.33;;;8.00;99.90;;;;;;5017382;28;20025;-85
2023/12/28 02:50:09;;;;;;;7.13;3.50;;;8.00;99.90;;;;;;5010623;28;20061;-86
2023/12/28 02:52:35;;;;;;;6.75;3.55;;;8.00;99.90;;;;;;5029424;28;20037;-88
2023/12/28 02:55:01;;;;;;;7.15;3.75;;;8.10;99.90;;;;;;5035138;28;20033;-85
2023/12/28 02:57:27;;;;;;;6.45;3.80;;;8.10;99.90;;;;;;5020231;28;20018;-87
2023/12/28 02:59:52;;;;;;;5.90;3.42;;;8.90;99.90;;;;;;5027433;28;20038;-84
2023/12/28 03:02:18;;;;;;;8.82;4.07;;;8.10;99.90;;;;;;5019078;28;20084;-85
2023/12/28 03:04:44;;;;;;;7.20;3.47;;;8.20;99.90;;;;;;5019830;28;20021;-86
2023/12/28 03:07:09;;;;;;;6.50;3.80;;;8.10;99.90;;;;;;5018916;28;20076;-86
2023/12/28 03:09:38;;;;;;;5.75;3.28;;;8.40;99.90;;;;;;5035651;28;20060;-87
2023/12/28 03:12:04;;;;;;;5.53;3.13;;;8.20;99.90;;;;;;5018334;28;20034;-85
2023/12/28 03:14:30;;;;;;;7.88;3.45;;;8.20;99.90;;;;;;5017398;28;20029;-86
2023/12/28 03:16:55;;;;;;;9.63;3.45;;;8.30;99.90;;;;;;5015992;28;20033;-87
2023/12/28 03:19:21;;;;;;;5.05;3.42;;;8.20;99.90;;;;;;5032886;28;20065;-86
2023/12/28 03:21:47;;;;;;;5.35;2.72;;;8.40;99.90;;;;;;5034278;28;20022;-85
2023/12/28 03:24:12;;;;;;;9.13;3.40;;;8.10;99.90;;;;;;5017222;28;20098;-88
2023/12/28 03:26:38;;;;;;;7.40;3.55;;;8.10;99.90;;;;;;5016748;28;20026;-86
2023/12/28 03:29:05;;;;;;;6.45;3.15;;;8.10;99.90;;;;;;5016454;28;20044;-84
2023/12/28 03:31:31;;;;;;;8.43;3.53;;;8.10;99.90;;;;;;5017063;28;20227;-86
2023/12/28 03:33:57;;;;;;;5.30;3.20;;;8.20;99.90;;;;;;5017250;28;20037;-85
2023/12/28 03:36:23;;;;;;;6.05;3.10;;;8.60;99.90;;;;;;5034079;28;20030;-83
2023/12/28 03:38:49;;;;;;;5.60;3.53;;;8.10;99.90;;;;;;5025651;28;20018;-84
2023/12/28 03:41:21;;;;;;;6.93;3.53;;;7.30;99.90;;;;;;5034087;28;20016;-86
2023/12/28 03:43:47;;;;;;;5.53;3.78;;;8.10;99.90;;;;;;5033900;28;20018;-84
2023/12/28 03:46:13;;;;;;;5.70;3.70;;;8.00;99.90;;;;;;5019745;28;20018;-85
2023/12/28 03:48:39;;;;;;;6.15;3.85;;;8.00;99.90;;;;;;5041300;28;20036;-88
2023/12/28 03:51:05;;;;;;;6.43;4.00;;;7.90;99.90;;;;;;5021767;28;20029;-87
2023/12/28 03:53:31;;;;;;;7.55;4.03;;;7.90;99.90;;;;;;5042098;28;20030;-85
2023/12/28 03:55:58;;;;;;;8.50;3.80;;;8.80;99.90;;;;;;5045945;28;20084;-83
2023/12/28 03:58:24;;;;;;;11.30;4.22;;;8.80;99.90;;;;;;5044451;28;20026;-87
2023/12/28 04:00:49;;;;;;;6.97;4.18;;;8.70;99.90;;;;;;5016599;28;20029;-85
2023/12/28 04:03:15;;;;;;;8.27;3.90;;;8.40;99.90;;;;;;5037009;28;20030;-86
2023/12/28 04:05:42;;;;;;;7.32;4.03;;;8.20;99.90;;;;;;5010076;28;20018;-88
2023/12/28 04:08:08;;;;;;;5.53;3.90;;;7.80;99.90;;;;;;5020572;28;20094;-86
2023/12/28 04:10:33;;;;;;;8.18;4.45;;;7.80;99.90;;;;;;5036959;28;20051;-82
2023/12/28 04:13:00;;;;;;;8.85;4.25;;;7.80;99.90;;;;;;5022764;28;20083;-84
2023/12/28 04:15:26;;;;;;;7.63;4.20;;;7.70;99.90;;;;;;5022726;28;20089;-84
2023/12/28 04:17:52;;;;;;;8.25;4.80;;;7.80;99.90;;;;;;5024785;28;20049;-85
2023/12/28 04:20:17;;;;;;;8.95;4.03;;;7.90;99.90;;;;;;5043930;28;20029;-82
2023/12/28 04:22:44;;;;;;;8.07;4.15;;;7.90;99.90;;;;;;5019622;28;20293;-83
2023/12/28 04:25:10;;;;;;;9.93;4.30;;;8.00;99.90;;;;;;5020798;28;20060;-88
2023/12/28 04:27:37;;;;;;;8.43;3.67;;;7.90;99.90;;;;;;5037601;28;20022;-86
2023/12/28 04:30:05;;;;;;;6.88;4.07;;;7.90;99.90;;;;;;5038366;28;20010;-86
2023/12/28 04:32:31;;;;;;;7.38;4.03;;;8.00;99.90;;;;;;5020274;28;20026;-83
2023/12/28 04:34:57;;;;;;;8.98;4.85;;;8.50;99.90;;;;;;5020477;28;20049;-88
2023/12/28 04:37:23;;;;;;;8.93;4.35;;;8.50;99.90;;;;;;5037108;28;20068;-86
2023/12/28 04:39:49;;;;;;;6.47;4.20;;;8.40;99.90;;;;;;5027858;28;20033;-88
2023/12/28 04:42:14;;;;;;;6.97;4.30;;;8.00;99.90;;;;;;5020925;28;20030;-87
2023/12/28 04:44:40;;;;;;;6.78;4.40;;;8.10;99.90;;;;;;5021035;28;20026;-87
2023/12/28 04:47:06;;;;;;;8.18;4.18;;;8.10;99.90;;;;;;5026701;28;20038;-89
2023/12/28 04:49:32;;;;;;;5.93;3.90;;;8.00;99.90;;;;;;5021282;28;20037;-85
2023/12/28 04:51:57;;;;;;;7.55;4.40;;;8.50;99.90;;;;;;5022419;28;20258;-86
2023/12/28 04:54:23;;;;;;;9.45;4.63;;;8.10;99.90;;;;;;5016518;28;20081;-85
2023/12/28 04:56:49;;;;;;;8.93;4.43;;;8.10;99.90;;;;;;5036869;28;20050;-86
2023/12/28 04:59:15;;;;;;;11.35;4.75;;;8.30;99.90;;;;;;5019924;28;20046;-85
2023/12/28 05:01:44;;;;;;;7.43;4.47;;;8.30;99.90;;;;;;5020728;28;20021;-86
2023/12/28 05:04:10;;;;;;;8.05;4.28;;;8.40;99.90;;;;;;5020522;28;20018;-86
2023/12/28 05:06:36;;;;;;;6.50;3.88;;;8.30;99.90;;;;;;5037686;28;20068;-88
2023/12/28 05:09:02;;;;;;;6.57;4.35;;;8.30;99.90;;;;;;5015007;28;20034;-85
2023/12/28 05:11:27;;;;;;;5.72;4.00;;;8.30;99.90;;;;;;5037741;28;20041;-85
2023/12/28 05:13:53;;;;;;;6.18;4.15;;;8.30;99.90;;;;;;5016386;28;20017;-88
2023/12/28 05:16:20;;;;;;;8.63;4.70;;;9.00;99.90;;;;;;5036991;28;20022;-87
2023/12/28 07:33:22;;;;;;;8.88;3.90;;;8.80;99.90;;;;;;5033241;28;20042;-85
2023/12/28 07:35:48;;;;;;;5.70;3.60;;;8.80;99.90;;;;;;5030292;28;20464;-87
2023/12/28 09:14:32;;;;;;;5.55;3.20;;;8.90;99.90;;;;;;5044239;28;20032;-86
2023/12/28 09:17:55;;;;;;;6.03;3.22;;;8.90;99.90;;;;;;5015515;28;20034;-87
2023/12/28 09:21:17;;;;;;;5.47;3.55;;;9.00;99.90;;;;;;5018751;28;20053;-88
2023/12/28 19:32:48;;;;;;;9.98;6.57;;;9.40;99.90;;;;;;5050789;28;20517;-83
2023/12/28 19:36:05;;;;;;;12.63;7.20;;;9.40;99.90;;;;;;5037047;28;20782;-86
2023/12/28 19:39:27;;;;;;;11.02;6.70;;;9.40;99.90;;;;;;5049973;28;20037;-86
2023/12/28 19:42:44;;;;;;;10.63;7.30;;;9.40;99.90;;;;;;5050476;28;20148;-86
2023/12/28 19:45:35;;;;;;;12.13;7.50;;;9.30;99.90;;;;;;5048257;28;20033;-85
2023/12/28 19:48:03;;;;;;;10.35;7.10;;;9.30;99.90;;;;;;5044298;28;20116;-85
2023/12/28 19:50:29;;;;;;;11.27;7.47;;;9.30;99.90;;;;;;5047002;28;20094;-85
2023/12/28 19:52:55;;;;;;;10.05;6.53;;;9.30;99.90;;;;;;5047718;28;20053;-87
2023/12/28 19:55:21;;;;;;;12.15;6.82;;;9.40;99.90;;;;;;5048785;28;20055;-85
2023/12/28 19:57:46;;;;;;;11.18;6.05;;;9.30;99.90;;;;;;5033056;28;20064;-85
2023/12/28 20:00:12;;;;;;;8.88;5.43;;;9.20;99.90;;;;;;5048517;28;20115;-86
2023/12/28 20:02:41;;;;;;;9.80;5.38;;;9.30;99.90;;;;;;5053713;28;20025;-86
2023/12/28 20:05:09;;;;;;;9.82;5.45;;;9.30;99.90;;;;;;5030611;28;20029;-84
2023/12/28 20:07:35;;;;;;;9.38;5.40;;;9.30;99.90;;;;;;5028926;28;20028;-85
2023/12/28 20:10:01;;;;;;;7.75;5.45;;;9.20;99.90;;;;;;5028989;28;20057;-83
2023/12/28 20:12:27;;;;;;;6.95;4.82;;;9.30;99.90;;;;;;5050341;28;20033;-85
2023/12/28 20:14:53;;;;;;;10.27;5.28;;;9.40;99.90;;;;;;5044650;28;20029;-85
2023/12/28 20:17:18;;;;;;;8.93;4.75;;;9.20;99.90;;;;;;5032856;28;20048;-85
2023/12/28 20:19:44;;;;;;;7.63;4.88;;;9.40;99.90;;;;;;5049699;28;20509;-89
2023/12/28 20:22:10;;;;;;;7.53;4.70;;;9.40;99.90;;;;;;5029317;28;20090;-84
2023/12/28 20:24:35;;;;;;;9.30;5.28;;;9.50;99.90;;;;;;5039407;28;20686;-86
2023/12/28 20:27:01;;;;;;;6.50;4.80;;;9.30;99.90;;;;;;5051756;28;20041;-84
2023/12/28 20:29:27;;;;;;;7.60;5.22;;;9.40;99.90;;;;;;5035232;28;20092;-82
2023/12/28 20:31:52;;;;;;;11.57;5.28;;;9.30;99.90;;;;;;5034176;28;20036;-84
2023/12/28 20:34:18;;;;;;;8.40;5.18;;;9.20;99.90;;;;;;5036668;28;20397;-84
2023/12/28 20:36:47;;;;;;;8.73;4.95;;;9.30;99.90;;;;;;5036786;28;20025;-84
2023/12/28 20:39:12;;;;;;;8.63;4.95;;;9.30;99.90;;;;;;5043568;28;20432;-84
2023/12/28 20:41:38;;;;;;;7.60;4.75;;;9.80;99.90;;;;;;5038097;28;20032;-83
2023/12/28 20:44:04;;;;;;;7.68;5.32;;;9.40;99.90;;;;;;5037326;28;20021;-85
2023/12/28 20:46:29;;;;;;;9.70;5.22;;;9.30;99.90;;;;;;5035205;28;20033;-87
2023/12/28 20:48:55;;;;;;;8.60;5.25;;;9.40;99.90;;;;;;5041835;28;20051;-83
2023/12/28 20:51:21;;;;;;;8.73;5.68;;;9.30;99.90;;;;;;5038179;28;20398;-87
2023/12/28 20:53:46;;;;;;;9.13;5.65;;;9.30;99.90;;;;;;5056687;28;20169;-84
2023/12/28 20:56:12;;;;;;;8.82;5.20;;;9.30;99.90;;;;;;5038932;28;20041;-84
2023/12/28 20:58:38;;;;;;;10.05;5.72;;;9.40;99.90;;;;;;5036130;28;20040;-85
2023/12/28 21:01:04;;;;;;;9.52;5.85;;;9.40;99.90;;;;;;5037978;28;20060;-88
2023/12/28 21:03:30;;;;;;;9.40;4.90;;;9.40;99.90;;;;;;5051395;28;20025;-84
2023/12/28 21:05:56;;;;;;;8.18;5.18;;;9.40;99.90;;;;;;5036810;28;20035;-85
2023/12/28 21:08:21;;;;;;;8.27;5.35;;;9.40;99.90;;;;;;5057655;28;20045;-86
2023/12/28 21:10:47;;;;;;;11.38;5.47;;;9.40;99.90;;;;;;5048030;28;20033;-88
2023/12/28 21:13:18;;;;;;;7.45;4.80;;;9.50;99.90;;;;;;5035258;28;20021;-86
2023/12/28 21:15:45;;;;;;;8.57;4.57;;;9.40;99.90;;;;;;5047685;28;20053;-85
2023/12/28 21:18:10;;;;;;;7.13;4.97;;;9.40;99.90;;;;;;5036232;28;20056;-84
2023/12/28 21:20:36;;;;;;;9.30;5.30;;;9.40;99.90;;;;;;5030973;28;20040;-85
2023/12/28 21:23:01;;;;;;;8.65;5.03;;;9.40;99.90;;;;;;5053686;28;20032;-85
2023/12/28 21:25:27;;;;;;;8.25;5.00;;;9.40;99.90;;;;;;5045314;28;20036;-85
2023/12/28 21:27:53;;;;;;;8.50;5.20;;;9.40;99.90;;;;;;5034878;28;20421;-87
2023/12/28 21:30:18;;;;;;;7.38;3.92;;;9.50;99.90;;;;;;5032481;28;20040;-83
2023/12/28 21:32:44;;;;;;;8.02;4.57;;;9.40;99.90;;;;;;5045305;28;20033;-84
2023/12/28 21:35:10;;;;;;;6.97;4.47;;;9.50;99.90;;;;;;5031959;28;20098;-86
2023/12/28 21:37:37;;;;;;;6.18;4.15;;;9.40;99.90;;;;;;5038113;28;20043;-85
2023/12/28 21:40:05;;;;;;;6.57;4.40;;;9.50;99.90;;;;;;5030557;28;20037;-86
2023/12/28 21:42:31;;;;;;;7.78;4.57;;;9.50;99.90;;;;;;5046913;28;20081;-84
2023/12/28 21:44:59;;;;;;;7.47;4.85;;;9.40;99.90;;;;;;5029746;28;20671;-85
2023/12/28 21:47:26;;;;;;;6.75;4.38;;;9.50;99.90;;;;;;5033295;28;20486;-85
2023/12/28 21:49:51;;;;;;;7.97;4.57;;;9.50;99.90;;;;;;5034559;28;20028;-86
2023/12/28 21:52:17;;;;;;;9.02;4.60;;;9.50;99.90;;;;;;5044553;28;20036;-83
2023/12/28 21:54:43;;;;;;;6.18;4.15;;;9.50;99.90;;;;;;5049071;28;20028;-82
2023/12/28 21:57:08;;;;;;;5.82;4.18;;;9.60;99.90;;;;;;5031224;28;20031;-84
2023/12/28 21:59:35;;;;;;;6.43;3.97;;;9.50;99.90;;;;;;5035277;28;20610;-84
2023/12/28 22:02:01;;;;;;;7.22;4.60;;;9.50;99.90;;;;;;5045485;28;20590;-84
2023/12/28 22:04:27;;;;;;;6.80;4.10;;;9.40;99.90;;;;;;5026754;28;20101;-83
2023/12/28 22:06:52;;;;;;;6.13;4.00;;;9.60;99.90;;;;;;5032390;28;20025;-83
2023/12/28 22:09:19;;;;;;;8.05;4.75;;;9.40;99.90;;;;;;5035158;28;20029;-85
2023/12/28 22:11:45;;;;;;;6.60;4.68;;;9.40;99.90;;;;;;5029694;28;20147;-84
2023/12/28 22:14:12;;;;;;;7.88;4.25;;;9.40;99.90;;;;;;5032052;28;20037;-81
2023/12/28 22:16:37;;;;;;;7.15;3.97;;;9.40;99.90;;;;;;5036751;28;20032;-83
2023/12/28 22:19:03;;;;;;;8.40;4.47;;;9.50;99.90;;;;;;5053407;28;20606;-80
2023/12/28 22:21:29;;;;;;;6.35;4.20;;;9.40;99.90;;;;;;5037537;28;20029;-84
2023/12/28 22:23:54;;;;;;;10.75;4.38;;;9.50;99.90;;;;;;5044930;28;20021;-82
2023/12/28 22:26:20;;;;;;;6.50;4.10;;;9.60;99.90;;;;;;5047905;28;20941;-81
2023/12/28 22:28:46;;;;;;;7.82;3.80;;;9.60;99.90;;;;;;5032532;28;20049;-85
2023/12/28 22:31:11;;;;;;;6.75;3.55;;;9.60;99.90;;;;;;5029187;28;20080;-85
2023/12/28 22:33:37;;;;;;;8.80;4.38;;;9.50;99.90;;;;;;5035049;28;20400;-83
2023/12/28 22:36:06;;;;;;;6.68;4.00;;;9.60;99.90;;;;;;5035312;28;20030;-84
2023/12/28 22:38:32;;;;;;;7.13;4.35;;;9.60;99.90;;;;;;5054427;28;20013;-82
2023/12/28 22:40:58;;;;;;;5.65;3.25;;;9.70;99.90;;;;;;5039245;28;20048;-88
2023/12/28 22:43:24;;;;;;;7.22;3.60;;;9.60;99.90;;;;;;5059537;28;20025;-83
2023/12/28 22:45:50;;;;;;;7.75;3.88;;;9.90;99.90;;;;;;5036791;28;20027;-84
2023/12/28 22:48:17;;;;;;;6.57;3.45;;;9.90;99.90;;;;;;5046489;28;20036;-85
2023/12/28 22:50:44;;;;;;;4.88;3.33;;;9.70;99.90;;;;;;5043360;28;20451;-83
2023/12/28 22:53:09;;;;;;;5.70;3.35;;;9.70;99.90;;;;;;5041467;28;20049;-83
2023/12/28 22:55:36;;;;;;;6.15;3.63;;;9.70;99.90;;;;;;5048903;28;20028;-84
2023/12/28 22:58:02;;;;;;;6.88;3.50;;;9.70;99.90;;;;;;5036186;28;20025;-84
2023/12/28 23:00:34;;;;;;;5.65;3.15;;;9.60;99.90;;;;;;5028150;28;20025;-85
2023/12/28 23:03:01;;;;;;;7.47;3.33;;;9.60;99.90;;;;;;5056405;28;20029;-83
2023/12/28 23:05:28;;;;;;;5.72;3.50;;;9.60;99.90;;;;;;5049046;28;20043;-85
2023/12/28 23:07:54;;;;;;;6.07;3.38;;;9.60;99.90;;;;;;5045151;28;20021;-80
2023/12/28 23:10:19;;;;;;;7.95;3.85;;;9.60;99.90;;;;;;5061578;28;20030;-87
2023/12/28 23:12:45;;;;;;;8.80;3.58;;;9.60;99.90;;;;;;5039696;28;20032;-86
2023/12/28 23:15:11;;;;;;;5.50;3.15;;;9.60;99.90;;;;;;5048014;28;20489;-83
2023/12/28 23:17:37;;;;;;;5.82;3.20;;;9.60;99.90;;;;;;5034936;28;20036;-83
2023/12/28 23:20:04;;;;;;;7.75;3.80;;;9.80;99.90;;;;;;5036350;28;20085;-85
2023/12/28 23:22:31;;;;;;;6.13;3.22;;;9.60;99.90;;;;;;5040969;28;20032;-84
2023/12/28 23:24:57;;;;;;;5.95;3.20;;;9.70;99.90;;;;;;5055139;28;20075;-85
2023/12/28 23:27:22;;;;;;;6.63;3.40;;;9.50;99.90;;;;;;5045841;28;20025;-84
2023/12/28 23:29:48;;;;;;;4.85;3.03;;;9.60;99.90;;;;;;5051006;28;20029;-85
2023/12/28 23:32:13;;;;;;;8.27;3.03;;;9.50;99.90;;;;;;5031702;28;20033;-84
2023/12/28 23:34:40;;;;;;;7.28;4.10;;;9.70;99.90;;;;;;5046075;28;20029;-84
2023/12/28 23:37:05;;;;;;;6.20;3.17;;;9.60;99.90;;;;;;5034852;28;20109;-86
2023/12/28 23:39:31;;;;;;;5.72;3.13;;;9.40;99.90;;;;;;5037170;28;20048;-86
2023/12/28 23:41:56;;;;;;;5.88;3.20;;;9.50;99.90;;;;;;5052008;28;20032;-84
2023/12/28 23:44:22;;;;;;;6.38;3.08;;;9.60;99.90;;;;;;5032244;28;20066;-85
2023/12/28 23:46:48;;;;;;;4.22;2.63;;;9.60;99.90;;;;;;5030930;28;20353;-80
2023/12/28 23:49:13;;;;;;;5.45;2.92;;;9.70;99.90;;;;;;5033660;28;20033;-84
2023/12/28 23:51:39;;;;;;;4.38;2.50;;;9.70;99.90;;;;;;5032034;28;20482;-86
2023/12/28 23:54:05;;;;;;;8.18;3.20;;;9.50;99.90;;;;;;5040976;28;20037;-86
2023/12/28 23:56:30;;;;;;;5.95;2.90;;;9.50;99.90;;;;;;5058710;28;20036;-85
2023/12/28 23:58:56;;;;;;;3.90;2.78;;;9.50;99.90;;;;;;5037079;28;20557;-84
